Date,TemperatureHighF,TemperatureAvgF,TemperatureLowF,DewpointHighF,DewpointAvgF,DewpointLowF,HumidityHigh,HumidityAvg,HumidityLow,PressureMaxIn,PressureMinIn,WindSpeedMaxMPH,WindSpeedAvgMPH,GustSpeedMaxMPH,PrecipitationSumIn
2014-1-1,24,21,18,12,9,6,69,60,47,30.39,30.16,27,12,30,0.00
2014-1-2,21,9,-1,14,5,-5,90,84,65,30.38,29.91,28,17,33,0.00
2014-1-3,14,5,-1,6,-2,-10,87,74,55,30.39,29.76,29,19,35,0.00
2014-1-4,26,13,0,16,0,-10,70,57,30,30.49,30.23,19,11,24,0.00
2014-1-5,36,29,20,35,21,14,96,71,56,30.30,29.96,20,5,22,0.03
2014-1-6,46,40,30,46,37,19,98,89,57,29.96,29.29,27,13,34,0.47
2014-1-7,30,15,8,20,0,-9,69,51,39,30.17,29.45,41,23,41,0.00
2014-1-8,22,14,8,7,1,-8,66,57,44,30.43,30.16,31,15,33,0.00
2014-1-9,27,20,16,15,8,5,81,61,42,30.64,30.40,28,10,32,0.00
2014-1-10,34,25,14,32,22,10,96,89,72,30.60,30.27,11,2,14,0.00
2014-1-11,57,45,32,56,44,31,98,97,94,30.26,29.23,22,3,32,0.38
2014-1-12,54,44,37,52,33,25,98,64,48,29.93,29.23,34,17,41,0.00
2014-1-13,48,40,31,41,31,25,89,70,47,30.11,29.87,27,11,33,0.00
2014-1-14,49,45,42,45,43,40,98,93,83,29.87,29.58,20,7,24,0.70
2014-1-15,45,38,34,40,36,33,97,90,68,30.01,29.72,15,4,20,0.00
2014-1-16,36,34,31,36,33,30,98,97,96,29.93,29.83,12,4,14,0.00
2014-1-17,44,37,33,35,30,22,98,78,42,29.96,29.88,17,4,19,0.00
2014-1-18,38,33,31,36,31,26,98,92,74,29.92,29.62,19,7,23,0.41
2014-1-19,31,30,28,31,27,23,98,90,78,29.71,29.51,30,11,31,0.00
2014-1-20,39,32,18,31,25,9,84,76,59,29.88,29.47,28,12,33,0.06
2014-1-21,18,12,8,10,2,-4,86,65,49,30.07,29.88,23,13,27,0.00
2014-1-22,20,11,6,6,0,-4,83,61,42,29.89,29.62,26,17,32,0.00
2014-1-23,21,10,3,3,-2,-6,70,57,37,30.11,29.87,20,13,26,0.00
2014-1-24,17,11,4,2,-2,-5,73,57,38,30.23,30.03,29,14,33,0.00
2014-1-25,37,26,15,27,17,0,88,68,52,30.02,29.29,30,14,35,0.00
2014-1-26,25,19,14,18,4,-7,77,53,36,29.88,29.30,40,18,44,0.00
2014-1-27,45,29,20,38,18,1,86,66,36,29.97,29.48,35,12,38,0.02
2014-1-28,20,16,11,5,-2,-7,69,45,32,30.29,29.96,24,12,29,0.00
2014-1-29,25,19,14,4,0,-6,63,43,26,30.22,29.93,23,11,26,0.00
2014-1-30,29,21,13,16,7,0,71,56,40,30.42,30.18,16,9,21,0.00
2014-1-31,38,32,22,23,18,12,86,60,39,30.19,29.99,19,9,21,0.00
2014-2-1,39,35,30,31,26,21,80,69,56,30.33,30.02,17,6,19,0.00
2014-2-2,46,39,34,40,35,30,94,86,68,30.04,29.85,14,5,14,0.06
2014-2-3,39,32,26,35,26,19,92,79,58,30.28,30.03,16,7,18,0.00
2014-2-4,34,28,21,24,20,16,93,74,50,30.45,30.28,12,5,13,0.00
2014-2-5,33,28,21,31,25,19,97,90,69,30.34,29.64,27,11,31,0.00
2014-2-6,26,21,16,20,14,10,93,76,53,30.25,29.95,16,7,18,0.00
2014-2-7,30,23,15,14,10,7,78,60,43,30.23,30.11,24,12,25,0.00
2014-2-8,29,23,15,13,8,2,65,52,36,30.27,30.12,18,8,23,0.00
2014-2-9,28,24,20,25,16,10,94,72,53,30.18,29.94,13,6,16,0.00
2014-2-10,26,23,17,24,14,8,94,72,49,30.20,29.89,25,10,26,0.00
2014-2-11,23,17,11,10,6,1,84,65,45,30.42,30.20,23,11,29,0.00
2014-2-12,26,16,6,15,3,-3,80,59,33,30.56,30.42,16,5,18,0.00
2014-2-13,33,26,18,32,24,13,97,90,79,30.42,29.04,42,18,51,0.00
2014-2-14,34,32,29,33,28,23,97,85,70,29.71,28.79,38,20,47,0.21
2014-2-15,34,30,26,30,25,22,97,84,66,29.85,29.46,26,7,28,0.00
2014-2-16,29,25,20,28,13,2,95,60,42,29.95,29.44,38,20,46,0.00
2014-2-17,26,19,13,6,1,-3,61,45,29,30.35,29.95,30,16,38,0.00
2014-2-18,32,21,9,31,16,1,97,82,58,30.37,29.89,17,6,22,0.00
2014-2-19,33,28,22,32,27,20,97,95,91,30.08,29.71,125,3,125,0.10
2014-2-20,46,37,29,34,30,26,97,75,47,30.23,29.79,23,9,27,0.40
2014-2-21,39,37,33,38,36,32,98,97,95,30.17,29.64,14,5,17,0.91
2014-2-22,52,42,31,34,29,23,98,66,33,29.93,29.80,27,11,32,0.01
2014-2-23,48,42,36,31,27,25,68,56,44,29.97,29.74,15,8,20,0.00
2014-2-24,42,32,22,28,15,7,65,50,37,29.92,29.70,29,15,37,0.00
2014-2-25,26,22,19,10,7,4,64,53,39,29.96,29.84,28,13,33,0.00
2014-2-26,28,20,14,14,6,-3,77,55,31,29.93,29.73,35,12,38,0.00
2014-2-27,27,18,10,20,4,-2,86,53,35,29.88,29.58,25,9,33,0.00
2014-2-28,23,16,8,8,-3,-11,71,44,23,30.44,29.86,33,14,43,0.00
2014-3-1,33,23,8,24,9,-3,75,57,33,30.44,30.06,17,7,24,0.00
2014-3-2,36,32,26,25,20,12,73,62,54,30.06,29.96,16,8,19,0.00
2014-3-3,26,19,14,14,3,-3,60,48,34,30.29,30.00,27,14,28,0.00
2014-3-4,27,19,7,11,2,-5,62,47,32,30.37,30.23,13,7,16,0.00
2014-3-5,25,20,17,17,15,8,87,79,46,30.51,30.25,13,8,16,0.00
2014-3-6,28,18,7,12,5,-7,82,58,33,30.65,30.51,14,7,16,0.00
2014-3-7,33,24,11,28,18,6,92,76,53,30.51,29.96,10,3,12,0.00
2014-3-8,51,34,25,32,26,21,91,72,38,29.96,29.67,21,6,25,0.00
2014-3-9,37,32,28,22,13,6,68,48,28,29.93,29.85,25,10,30,0.00
2014-3-10,38,32,26,33,25,10,92,74,43,29.87,29.64,14,6,22,0.00
2014-3-11,55,40,34,36,34,31,93,78,41,29.72,29.48,19,6,27,0.05
2014-3-12,40,38,35,38,36,32,97,94,89,29.72,29.04,23,8,25,0.39
2014-3-13,34,20,16,34,14,1,97,78,50,29.90,29.02,32,20,39,0.01
2014-3-14,36,25,12,25,9,0,64,52,38,30.15,29.89,21,11,27,0.00
2014-3-15,53,43,36,37,31,22,85,64,44,29.89,29.62,39,16,43,0.01
2014-3-16,40,29,21,22,11,0,80,49,29,30.21,29.82,34,17,40,0.00
2014-3-17,27,19,13,17,4,-5,76,51,41,30.20,30.05,20,7,23,0.00
2014-3-18,31,24,16,22,13,3,81,62,46,30.36,30.16,14,7,16,0.00
2014-3-19,38,31,22,33,25,18,89,79,64,30.41,29.99,18,7,19,0.00
2014-3-20,47,41,37,41,34,27,97,78,50,30.01,29.57,30,13,43,0.68
2014-3-21,40,37,33,28,24,20,69,58,46,30.00,29.70,31,16,37,0.00
2014-3-22,52,37,28,35,27,21,80,67,44,30.03,29.63,34,10,42,0.00
2014-3-23,39,34,21,27,18,1,80,55,34,30.09,29.90,25,13,31,0.00
2014-3-24,29,22,15,13,3,-1,66,46,28,30.17,30.03,27,12,32,0.00
2014-3-25,36,27,19,20,13,8,75,56,32,30.14,29.96,20,8,29,0.00
2014-3-26,33,30,23,20,14,5,66,50,35,29.98,29.55,42,25,53,0.00
2014-3-27,42,29,20,27,8,1,71,42,21,30.28,29.98,38,15,44,0.00
2014-3-28,54,44,35,48,34,16,92,70,42,30.23,29.92,23,10,26,0.04
2014-3-29,50,43,38,47,40,37,96,89,82,30.26,29.99,19,7,22,0.45
2014-3-30,38,37,34,37,36,33,98,96,91,30.03,29.65,51,22,55,0.40
2014-3-31,42,36,33,35,32,29,97,85,67,30.00,29.70,24,14,34,0.38
2014-4-1,44,39,35,34,30,27,86,71,58,30.10,30.00,21,8,27,0.00
2014-4-2,40,37,32,36,32,26,95,82,70,30.13,30.03,13,5,15,0.00
2014-4-3,46,38,32,35,31,23,96,79,40,30.14,30.02,20,5,24,0.00
2014-4-4,40,37,32,37,32,25,95,81,68,30.18,29.94,15,8,18,0.27
2014-4-5,49,42,38,41,34,24,97,77,50,29.93,29.66,32,15,39,0.15
2014-4-6,54,43,35,26,23,18,65,47,25,30.16,29.90,26,12,39,0.00
2014-4-7,49,42,34,39,32,23,91,69,44,30.24,29.95,18,4,19,0.05
2014-4-8,60,46,42,56,43,34,98,91,61,29.95,29.27,36,8,42,0.65
2014-4-9,51,45,38,38,30,14,82,58,29,29.95,29.47,34,14,40,0.00
2014-4-10,61,46,32,34,23,14,61,41,20,30.13,29.95,31,12,34,0.00
2014-4-11,68,57,50,50,42,33,78,57,41,29.99,29.88,26,11,34,0.03
2014-4-12,67,54,44,46,39,29,95,63,25,30.19,29.97,26,7,34,0.06
2014-4-13,48,44,40,41,40,38,93,86,72,30.29,30.03,21,9,22,0.01
2014-4-14,75,58,39,58,48,38,96,74,44,30.03,29.82,39,15,50,0.00
2014-4-15,68,61,43,60,57,42,97,87,70,29.86,29.53,41,21,49,0.06
2014-4-16,43,34,28,42,24,14,97,66,1,30.62,29.68,31,17,40,0.06
2014-4-17,37,33,29,28,22,17,77,64,54,30.83,30.62,21,10,24,0.00
2014-4-18,40,36,28,34,31,26,91,79,67,30.67,30.25,19,6,20,0.00
2014-4-19,55,45,32,38,33,28,96,67,38,30.39,30.15,29,11,34,0.00
2014-4-20,46,41,34,36,31,23,86,67,49,30.53,30.33,15,6,18,0.00
2014-4-21,58,48,36,42,36,25,92,66,31,30.33,29.80,20,8,27,0.00
2014-4-22,62,53,46,52,44,36,88,70,49,29.79,29.43,22,8,25,0.01
2014-4-23,56,51,46,52,45,35,93,80,63,29.56,29.40,37,14,39,0.04
2014-4-24,53,47,41,35,30,26,68,53,40,29.90,29.56,39,23,48,0.00
2014-4-25,51,46,40,40,35,30,82,65,49,30.00,29.82,21,8,28,0.00
2014-4-26,45,43,42,41,39,37,92,86,74,29.87,29.79,14,6,17,0.20
2014-4-27,49,43,41,44,40,38,94,90,81,30.03,29.85,14,4,14,0.07
2014-4-28,50,45,39,43,40,36,89,81,63,30.24,29.99,19,8,22,0.00
2014-4-29,44,42,40,40,37,34,89,82,74,30.55,30.24,27,13,32,0.00
2014-4-30,43,42,41,40,38,36,95,86,79,30.56,30.21,18,8,21,0.17
2014-5-1,52,47,42,52,46,40,98,97,92,30.21,29.65,10,4,17,0.74
2014-5-2,64,58,47,52,42,38,98,59,39,29.78,29.63,25,10,33,0.01
2014-5-3,62,54,48,47,43,39,85,69,51,29.84,29.70,19,6,23,0.00
2014-5-4,57,53,49,47,41,36,86,65,46,29.70,29.48,37,16,39,0.00
2014-5-5,60,54,48,45,42,39,83,66,48,29.84,29.57,25,14,27,0.00
2014-5-6,61,52,45,44,38,28,80,62,30,30.02,29.80,24,10,30,0.00
2014-5-7,59,52,44,44,38,33,86,59,39,30.15,30.02,22,7,25,0.00
2014-5-8,57,51,43,47,41,34,90,70,42,30.18,30.07,18,5,21,0.00
2014-5-9,50,48,46,47,45,43,97,90,79,30.26,30.08,13,5,15,0.03
2014-5-10,79,62,49,63,56,47,97,82,49,30.08,29.70,27,9,35,0.09
2014-5-11,77,69,62,60,41,26,82,41,16,29.99,29.73,26,12,43,0.00
2014-5-12,75,63,51,52,46,39,87,55,31,30.15,29.94,31,7,37,0.00
2014-5-13,51,47,46,46,41,35,90,80,64,30.34,30.15,18,6,21,0.00
2014-5-14,54,50,46,51,46,39,93,86,77,30.34,30.27,19,7,22,0.00
2014-5-15,64,56,50,59,53,48,96,91,81,30.29,30.18,22,7,26,0.00
2014-5-16,59,55,53,56,53,51,97,93,84,30.20,29.99,22,9,24,0.14
2014-5-17,72,62,53,61,50,38,98,70,32,30.03,29.86,24,12,31,0.64
2014-5-18,62,56,49,49,45,40,81,66,54,30.08,30.00,18,5,21,0.00
2014-5-19,62,55,49,48,42,36,93,62,38,30.06,29.98,28,12,34,0.11
2014-5-20,65,57,50,52,48,44,86,73,52,30.00,29.92,17,6,23,0.00
2014-5-21,59,54,49,54,51,48,97,89,79,30.00,29.93,14,5,16,0.00
2014-5-22,52,51,49,51,50,48,98,97,94,29.97,29.88,9,4,11,0.12
2014-5-23,54,52,50,52,51,49,97,95,91,29.99,29.88,12,5,13,0.10
2014-5-24,58,53,51,51,50,47,96,88,68,30.05,29.96,13,6,15,0.04
2014-5-25,61,55,50,55,52,49,97,89,78,30.09,29.97,18,5,20,0.00
2014-5-26,78,68,56,58,55,53,94,67,43,29.97,29.75,27,11,33,0.00
2014-5-27,68,54,48,58,51,46,96,87,65,29.97,29.78,17,7,20,0.30
2014-5-28,49,47,44,47,45,42,97,94,82,30.21,29.93,24,12,27,0.00
2014-5-29,54,48,40,48,44,39,97,86,67,30.25,30.14,12,6,13,0.00
2014-5-30,59,52,45,52,48,44,95,87,70,30.14,29.98,19,6,22,0.08
2014-5-31,54,52,49,50,48,40,95,87,67,30.28,30.06,14,6,16,0.00
2014-6-1,64,55,47,52,46,41,92,72,54,30.34,30.21,13,6,16,0.00
2014-6-2,76,64,53,56,52,46,78,64,42,30.21,29.97,21,7,23,0.00
2014-6-3,65,59,55,57,54,50,93,83,71,30.01,29.91,17,6,21,0.00
2014-6-4,56,54,52,54,52,51,97,95,87,29.91,29.79,12,4,14,0.03
2014-6-5,59,56,54,59,55,54,98,98,97,29.79,29.64,14,0,16,0.37
2014-6-6,73,64,55,59,55,52,98,77,50,29.84,29.67,20,2,22,0.01
2014-6-7,78,69,60,62,57,54,82,67,47,29.90,29.83,13,6,20,0.00
2014-6-8,76,69,60,61,58,55,85,68,49,29.93,29.84,14,6,19,0.00
2014-6-9,82,72,64,65,61,57,84,69,54,29.95,29.87,19,7,22,0.00
2014-6-10,69,63,58,65,60,55,96,91,80,30.11,29.92,13,4,20,0.09
2014-6-11,62,58,54,56,54,51,93,85,78,30.20,30.10,10,5,12,0.00
2014-6-12,62,60,59,57,56,54,89,86,82,30.18,30.08,16,7,18,0.00
2014-6-13,60,58,57,58,57,56,98,95,88,30.08,29.80,16,4,20,0.99
2014-6-14,71,62,57,63,59,55,98,90,73,29.87,29.78,13,0,15,0.00
2014-6-15,76,66,56,57,54,51,89,68,47,30.03,29.87,23,4,25,0.00
2014-6-16,69,64,56,56,52,47,82,67,47,30.13,30.00,18,7,21,0.00
2014-6-17,77,70,64,70,62,56,90,78,68,30.04,29.83,18,8,19,0.08
2014-6-18,80,75,66,68,64,59,93,70,51,29.90,29.66,33,16,41,0.00
2014-6-19,78,73,63,61,52,40,81,51,27,29.95,29.87,23,12,26,0.00
2014-6-20,70,63,55,52,46,39,84,55,33,29.95,29.86,27,10,34,0.00
2014-6-21,72,62,52,51,47,44,80,60,41,29.95,29.85,21,7,24,0.00
2014-6-22,68,60,52,57,51,46,86,71,52,30.03,29.91,12,4,15,0.00
2014-6-23,68,62,53,59,56,51,95,80,56,30.15,30.03,18,5,22,0.00
2014-6-24,79,68,59,64,57,51,79,70,56,30.15,29.96,22,10,28,0.00
2014-6-25,87,73,61,71,63,56,94,71,53,29.97,29.81,21,11,24,0.00
2014-6-26,69,62,58,69,61,56,98,94,87,30.00,29.77,15,4,19,0.27
2014-6-27,74,64,55,56,50,38,97,63,27,30.20,29.99,15,5,17,0.00
2014-6-28,77,67,54,61,55,50,87,66,49,30.26,30.19,12,4,14,0.00
2014-6-29,78,70,59,63,59,54,91,68,47,30.24,30.05,17,6,22,0.00
2014-6-30,87,76,64,67,62,57,76,64,48,30.06,29.87,19,9,22,0.00
2014-7-4,70,65,61,68,62,-100,98,94,87,29.96,29.79,5,-8,8,1.24
2014-7-5,79,68,55,63,53,42,97,64,35,29.96,29.71,35,13,39,0.15
2014-7-6,82,74,64,60,55,51,71,52,37,29.96,29.82,30,15,32,0.00
2014-7-7,86,74,68,69,64,60,80,72,56,29.84,29.66,28,12,28,0.00
2014-7-8,88,82,74,72,69,65,82,67,55,29.73,29.64,23,13,28,0.23
2014-7-9,86,79,72,70,66,60,85,65,44,29.93,29.60,24,13,29,0.00
2014-7-10,79,71,64,65,60,54,94,71,45,30.14,29.91,18,6,19,0.14
2014-7-11,71,66,60,62,56,52,94,73,54,30.24,30.13,14,6,15,0.00
2014-7-12,74,66,57,65,61,55,93,82,70,30.22,30.09,18,5,20,0.00
2014-7-13,84,73,66,67,63,60,84,71,52,30.09,29.92,30,11,32,0.00
2014-7-15,74,70,66,72,69,65,98,94,82,29.78,29.72,39,2,40,0.31
2014-7-16,73,68,63,72,68,62,98,98,93,29.82,29.74,1,0,1,0.70
2014-7-17,74,68,62,68,61,57,96,79,64,30.06,29.82,8,0,8,0.00
2014-7-18,75,67,58,60,57,53,90,71,49,30.22,30.06,18,2,18,0.00
2014-7-19,66,62,58,61,59,56,96,89,78,30.28,30.22,9,2,9,0.00
2014-7-20,67,63,59,63,61,57,97,93,82,30.22,30.15,11,1,12,0.00
2014-7-21,67,62,56,63,60,55,97,93,84,30.22,30.14,6,0,6,0.01
2014-7-22,79,70,59,70,65,58,97,85,73,30.14,29.95,1,0,4,0.00
2014-7-23,90,79,69,74,71,67,93,76,52,29.95,29.69,9,0,9,0.21
2014-7-24,70,68,63,69,65,60,97,90,83,29.88,29.73,6,0,6,0.01
2014-7-25,79,69,57,64,58,54,90,71,48,29.96,29.88,15,1,15,0.00
2014-7-26,81,72,63,63,60,54,90,69,41,29.96,29.83,19,4,19,0.00
2014-7-27,76,68,65,68,65,62,97,91,77,29.88,29.65,21,5,21,0.21
2014-7-28,68,68,67,68,67,65,97,97,96,29.67,29.64,1,0,1,0.00
2014-7-29,67,64,61,60,60,59,93,85,77,29.92,29.85,9,1,10,0.00
2014-7-30,71,63,58,63,60,56,96,90,71,30.03,29.92,5,0,5,0.00
2014-7-31,73,66,57,64,61,56,96,84,70,30.15,30.02,21,1,25,0.01
2014-8-1,72,66,62,67,63,60,98,92,79,30.21,30.14,15,0,16,0.55
2014-8-2,70,66,62,68,63,60,98,90,76,30.22,30.13,1,0,1,0.01
2014-8-3,68,63,58,62,60,57,97,91,78,30.14,30.04,1,0,1,0.00
2014-8-4,74,66,61,68,64,60,98,92,79,30.05,29.97,1,0,1,0.00
2014-8-5,76,70,64,69,66,62,97,87,74,30.01,29.87,1,0,1,0.00
2014-8-6,80,71,65,66,63,52,94,77,39,29.87,29.76,6,0,6,0.00
2014-8-7,75,65,59,62,58,55,89,78,53,29.92,29.82,29,0,32,0.16
2014-8-8,79,67,57,62,58,54,93,73,43,30.01,29.91,15,1,16,0.00
2014-8-9,76,69,61,64,60,56,89,73,54,30.08,29.99,19,2,20,0.00
2014-8-10,80,69,61,65,61,57,89,77,50,30.13,30.06,14,4,14,0.00
2014-8-11,78,70,61,66,63,59,94,80,61,30.14,30.06,16,5,18,0.00
2014-8-12,72,68,63,67,64,60,93,86,72,30.12,30.04,21,7,21,0.00
2014-8-13,67,66,64,66,64,62,98,94,89,30.04,29.59,24,3,24,1.41
2014-8-14,73,65,58,63,56,50,98,75,46,29.85,29.61,11,0,12,0.00
2014-8-15,69,62,56,57,54,52,90,76,55,29.89,29.83,21,5,21,0.00
2014-8-16,74,67,59,59,55,51,83,68,44,29.94,29.88,24,9,24,0.00
2014-8-17,74,68,61,62,59,56,91,75,61,29.89,29.75,22,8,23,0.00
2014-8-18,72,66,59,57,54,49,83,68,46,29.86,29.75,23,11,26,0.00
2014-8-19,70,62,54,61,56,51,91,79,62,29.95,29.85,17,5,17,0.00
2014-8-20,70,63,56,64,60,54,95,89,77,30.06,29.95,12,3,13,0.00
2014-8-21,68,62,55,64,59,54,98,90,77,30.10,30.05,7,2,7,0.01
2014-8-22,65,62,60,63,61,59,97,94,88,30.11,30.07,14,2,14,0.11
2014-8-23,76,68,57,62,60,55,96,77,61,30.14,30.09,8,0,8,0.00
2014-8-24,75,73,70,62,58,52,64,59,52,30.14,30.08,0,0,0,0.00
2014-8-25,74,72,68,60,55,48,63,56,49,30.14,30.08,0,0,0,0.00
2014-8-26,68,67,65,54,49,44,64,52,47,30.15,30.01,0,0,0,0.00
2014-8-27,74,68,66,61,55,50,68,62,56,30.00,29.80,0,0,0,0.00
2014-8-28,77,75,74,60,59,56,62,58,53,29.96,29.77,0,0,0,0.00
2014-8-29,77,75,74,60,58,56,57,55,54,30.26,29.96,0,0,0,0.00
2014-8-30,77,75,74,61,59,57,59,58,55,30.29,30.10,0,0,0,0.00
2014-8-31,77,75,74,64,61,58,65,61,58,30.10,29.91,0,0,0,0.00
2014-9-1,76,75,72,64,60,55,66,60,54,29.96,29.89,0,0,0,0.00
2014-9-2,75,72,69,60,55,49,62,56,49,29.91,29.69,0,0,0,0.00
2014-9-3,76,73,71,63,58,53,65,59,52,30.05,29.67,0,0,0,0.00
2014-9-4,77,73,69,63,59,58,79,63,53,30.18,30.05,14,4,15,0.00
2014-9-5,87,77,65,70,65,61,87,70,51,30.14,29.93,24,8,24,0.00
2014-9-6,88,76,67,74,70,62,91,80,53,29.93,29.71,33,12,46,0.23
2014-9-7,70,65,59,62,58,53,92,80,63,30.20,29.90,17,6,19,0.02
2014-9-8,67,61,54,58,55,51,92,80,64,30.40,30.20,15,6,15,0.00
2014-9-9,65,61,53,60,56,51,93,85,71,30.37,30.19,18,8,20,0.00
2014-9-10,64,61,58,61,58,56,95,91,83,30.20,30.02,16,7,17,0.00
2014-9-11,75,67,61,68,63,59,96,86,76,30.03,29.74,21,7,23,0.00
2014-9-12,67,61,56,59,52,46,84,72,59,30.24,29.86,27,9,27,0.00
2014-9-13,60,56,49,58,52,44,96,85,76,30.29,30.10,23,10,24,0.13
2014-9-14,63,56,49,56,47,42,96,75,49,30.21,30.09,23,9,24,0.00
2014-9-15,62,54,45,52,47,43,93,80,65,30.24,30.08,10,6,13,0.00
2014-9-16,64,57,52,56,52,49,94,86,74,30.10,29.94,10,3,10,0.00
2014-9-17,65,58,52,57,53,48,96,84,59,30.00,29.92,15,5,16,0.00
2014-9-18,70,58,50,53,48,43,90,71,43,30.15,29.91,23,8,23,0.00
2014-9-19,55,50,44,43,35,28,81,58,39,30.42,30.15,18,8,20,0.00
2014-9-20,70,57,39,58,49,37,93,75,59,30.39,30.06,22,7,24,0.00
2014-9-21,71,63,58,66,61,55,98,92,83,30.07,29.52,20,5,20,0.13
2014-9-22,69,64,52,66,52,39,98,67,41,30.07,29.49,33,13,39,0.00
2014-9-23,69,56,45,51,45,40,85,68,46,30.41,30.06,21,6,22,0.00
2014-9-24,63,57,49,55,51,46,93,83,71,30.64,30.41,13,6,14,0.00
2014-9-25,60,53,46,53,50,45,96,87,72,30.55,30.25,6,3,8,0.00
2014-9-26,67,57,48,56,52,46,95,84,63,30.25,30.13,12,4,12,0.00
2014-9-27,79,66,55,60,57,53,94,75,46,30.17,30.10,11,4,12,0.00
2014-9-28,77,68,56,64,61,55,96,80,62,30.14,29.94,12,4,12,0.00
2014-9-29,69,62,56,63,59,54,96,89,73,30.03,29.92,26,10,26,0.00
2014-9-30,58,56,54,55,54,53,96,93,89,30.05,29.99,24,10,28,0.00
2014-10-1,58,57,56,56,55,54,96,93,90,30.13,30.02,26,13,26,0.37
2014-10-2,58,55,49,55,52,47,95,89,75,30.18,30.11,26,11,29,0.16
2014-10-3,56,52,48,54,49,46,96,90,80,30.15,29.90,19,8,21,0.00
2014-10-4,62,58,54,61,57,53,98,97,95,29.90,29.52,14,6,16,0.25
2014-10-5,62,56,49,61,47,37,97,73,40,29.92,29.51,24,11,25,0.00
2014-10-6,63,53,42,54,46,39,92,76,54,30.15,29.93,22,6,22,0.00
2014-10-7,68,63,58,60,57,54,93,83,67,30.15,29.97,23,10,29,0.00
2014-10-8,70,64,59,62,54,44,96,72,44,29.97,29.67,28,11,30,0.03
2014-10-9,64,56,48,45,38,32,77,52,33,29.96,29.83,31,11,31,0.00
2014-10-10,61,53,45,43,40,35,81,61,42,30.12,29.96,23,8,23,0.00
2014-10-11,53,48,45,47,44,40,94,87,72,30.14,30.06,13,4,13,0.14
2014-10-12,59,50,41,46,42,38,95,76,51,30.29,30.11,15,6,15,0.00
2014-10-13,61,53,42,54,47,40,94,79,58,30.36,30.24,24,6,24,0.00
2014-10-14,76,65,57,64,59,54,94,82,63,30.25,30.13,24,6,24,0.00
2014-10-15,68,63,56,63,60,55,98,92,81,30.14,29.97,16,5,20,0.00
2014-10-16,64,62,60,63,61,59,98,97,96,29.97,29.65,23,8,23,0.84
2014-10-17,71,63,58,60,56,51,98,80,50,29.68,29.58,23,8,23,0.01
2014-10-18,69,61,56,61,56,50,96,85,65,29.65,29.46,24,7,24,0.11
2014-10-19,57,50,43,50,37,27,80,63,49,29.93,29.56,32,16,32,0.00
2014-10-20,56,46,38,39,32,26,72,58,41,30.04,29.93,23,10,23,0.00
2014-10-21,58,52,46,56,49,39,95,88,71,30.00,29.92,20,6,20,0.03
2014-10-22,55,51,49,54,49,47,97,94,90,30.07,29.85,52,24,52,0.11
2014-10-23,54,51,48,51,49,47,96,93,88,29.85,29.62,53,27,53,0.37
2014-10-24,53,50,48,48,47,44,95,89,81,29.73,29.65,26,12,28,0.01
2014-10-25,65,54,46,47,42,36,88,66,35,29.74,29.46,23,8,24,0.00
2014-10-26,56,53,47,47,43,38,84,69,54,29.66,29.40,32,14,32,0.00
2014-10-27,59,51,46,41,40,38,82,66,47,30.02,29.66,38,13,38,0.00
2014-10-28,56,50,42,52,46,39,96,87,75,30.08,29.93,15,4,15,0.00
2014-10-29,63,55,50,58,52,46,98,91,61,29.93,29.77,22,5,22,0.08
2014-10-30,56,49,43,49,42,38,89,76,53,30.00,29.84,23,7,23,0.00
2014-10-31,50,47,41,41,38,35,89,72,59,30.06,29.98,21,8,21,0.00
2014-11-1,44,42,39,42,38,34,93,85,72,29.98,29.81,33,16,33,0.17
2014-11-2,42,39,34,36,30,15,95,74,37,29.84,29.61,45,24,45,0.08
2014-11-3,52,43,36,27,18,9,51,37,19,30.04,29.79,40,17,40,0.00
2014-11-4,52,47,36,46,38,24,87,71,44,30.13,29.98,16,3,16,0.00
2014-11-5,64,55,47,46,39,30,87,57,35,30.10,29.92,33,9,33,0.00
2014-11-6,50,48,44,48,43,35,95,83,64,30.10,29.48,29,6,29,0.33
2014-11-7,49,44,39,47,38,24,96,80,57,29.76,29.43,40,17,40,0.00
2014-11-8,47,40,35,32,26,22,75,57,37,29.94,29.76,34,10,36,0.00
2014-11-9,52,44,38,39,35,32,90,71,52,30.01,29.86,13,5,13,0.00
2014-11-10,57,45,35,46,36,31,94,75,41,30.20,30.01,17,4,17,0.00
2014-11-11,57,48,37,51,45,36,97,91,81,30.19,29.98,17,4,17,0.00
2014-11-12,55,51,44,53,48,34,98,91,67,29.99,29.83,22,4,22,0.00
2014-11-13,50,43,37,35,30,25,90,60,39,30.07,29.95,15,6,17,0.04
2014-11-14,43,37,32,35,28,19,95,74,39,30.09,29.89,25,9,25,0.13
2014-11-15,39,33,28,22,18,14,72,57,38,30.33,30.09,26,10,26,0.00
2014-11-16,42,36,28,31,24,17,76,63,43,30.37,30.12,16,6,16,0.00
2014-11-17,48,40,36,47,36,29,96,89,67,30.11,29.43,21,6,21,0.95
2014-11-18,40,34,26,38,20,4,96,60,33,29.88,29.42,46,17,46,0.00
2014-11-19,37,30,25,16,11,6,58,47,31,30.11,29.88,34,14,34,0.00
2014-11-20,44,36,30,25,19,13,62,51,38,30.05,29.73,35,12,35,0.00
2014-11-21,33,30,26,18,13,8,66,50,39,30.39,29.89,36,16,36,0.00
2014-11-22,42,33,24,23,15,9,69,48,27,30.41,30.01,32,12,32,0.00
2014-11-23,59,49,41,43,36,22,75,60,46,30.13,30.02,24,8,24,0.00
2014-11-24,65,56,43,62,53,37,98,88,71,30.09,29.52,32,12,32,0.20
2014-11-25,63,57,44,56,43,27,91,62,37,30.10,29.65,18,10,21,0.00
2014-11-26,47,39,33,37,32,30,96,78,55,30.20,29.68,38,13,38,0.14
2014-11-27,35,33,30,33,31,27,96,90,85,30.01,29.66,32,11,34,0.06
2014-11-28,34,29,24,28,24,18,93,82,63,30.20,29.99,22,11,23,0.00
2014-11-29,34,27,21,24,18,14,85,71,50,30.34,30.20,15,6,15,0.00
2014-11-30,55,45,30,43,38,24,89,74,56,30.25,29.97,21,8,24,0.00
2014-12-1,60,50,38,48,40,25,76,69,59,30.45,29.96,26,14,27,0.00
2014-12-2,41,35,32,38,26,19,91,70,59,30.72,30.41,28,12,28,0.02
2014-12-3,49,40,31,47,37,28,97,90,63,30.41,29.83,33,11,34,0.50
2014-12-4,40,36,29,30,23,16,76,61,46,30.56,30.03,29,10,29,0.00
2014-12-5,42,30,23,35,24,15,91,79,61,30.70,30.46,25,10,25,0.01
2014-12-6,46,38,34,44,36,32,96,94,83,30.46,30.14,19,9,24,0.62
2014-12-7,37,31,18,36,19,-4,95,65,22,30.72,30.25,34,14,34,0.03
2014-12-8,27,20,15,25,12,0,94,72,51,30.79,30.55,21,14,22,0.00
2014-12-9,47,37,26,46,36,24,98,96,88,30.54,29.54,45,20,51,0.50
2014-12-10,43,39,38,41,37,36,96,95,92,29.61,29.42,43,16,43,0.13
2014-12-11,40,35,32,39,34,30,97,94,90,29.77,29.41,19,10,19,0.02
2014-12-12,37,34,31,33,30,28,94,89,83,29.86,29.76,15,10,16,0.00
2014-12-13,36,34,31,32,29,27,95,84,77,29.84,29.75,19,12,23,0.00
2014-12-14,43,36,33,32,30,28,86,77,62,29.90,29.76,18,10,18,0.00
2014-12-15,40,35,31,33,30,28,93,82,71,30.15,29.88,13,6,13,0.00
2014-12-16,42,37,33,41,34,30,97,91,85,30.16,29.95,13,3,13,0.00
2014-12-17,46,42,38,45,40,37,98,92,81,29.95,29.67,25,11,25,0.34
2014-12-18,42,39,35,38,33,27,91,77,66,29.85,29.69,36,17,36,0.02
2014-12-19,38,33,28,28,25,22,83,72,60,30.16,29.84,23,11,26,0.00
2014-12-20,35,30,25,30,25,21,90,81,71,30.35,30.16,24,11,24,0.00
2014-12-21,33,30,25,29,25,21,90,82,74,30.39,30.31,23,7,24,0.00
2014-12-22,43,36,32,39,33,26,97,88,79,30.42,30.32,17,7,18,0.08
2014-12-23,44,42,39,43,40,37,97,92,80,30.33,30.19,20,12,23,0.42
2014-12-24,43,40,39,43,40,38,98,97,97,30.19,29.56,24,11,24,0.45
2014-12-25,58,47,40,58,38,29,99,74,48,29.95,29.45,40,14,40,0.09
2014-12-26,48,42,36,33,31,29,77,64,53,30.16,29.95,27,10,28,0.00
2014-12-27,51,42,36,36,33,30,84,71,52,30.21,30.00,19,6,23,0.00
2014-12-28,50,46,40,44,37,27,89,70,59,30.00,29.73,26,10,26,0.04
2014-12-29,40,35,26,28,22,12,72,58,40,30.24,29.98,26,10,26,0.00
2014-12-30,27,24,19,12,7,-2,67,49,30,30.36,30.24,28,11,28,0.00
2014-12-31,28,22,16,15,10,2,76,61,42,30.33,30.14,24,8,26,0.00
2015-1-1,32,26,18,16,11,8,73,53,38,30.13,29.91,33,12,33,0.00
2015-1-2,38,33,26,26,18,11,67,55,45,30.50,29.93,30,12,35,0.00